EGNSEIWF

Guest
Details From EGNS - Isle Of Man Ronaldsway
To EIWF - Waterford
Flight Number -
Tags generated
Created
Modified
Stats Distance 144 nm / 267 km
Max Altitude 16,000 ft / 4,877 m
Waypoints 3
Social Downloads 0
Likes 0
Share VATSIM

Download

Looking for another format? Having issues loading an existing format? Contact us
Advertisement - Login to hide

Notes

Basic altitude profile: - Ascent Rate: 2500ft/min - Ascent Speed: 250kts - Cruise Altitude: 10000ft - Cruise Speed: 420kts - Descent Rate: 1500ft/min - Descent Speed: 250kts Options: - Use NATs: yes - Use PACOTS: yes - Use low airways: yes - Use high airways: yes

Route

EGNS LIFFY EIWF

ID Type Via Altitude Latitude Longitude Leg Dist Tot Dist Heading (true) Name
O EGNS APT - 0 ft / 0 m 54.08283˚ -4.62548˚ - 0 nm - Isle Of Man Ronaldsway
LIFFY FIX - 16,000 ft / 4,877 m 53.48000˚ -5.50000˚ 47 nm 47 nm 221° / 220° -
O EIWF APT - 0 ft / 0 m 52.18718˚ -7.08691˚ 96 nm 144 nm 217° / 216° Waterford

Altitude Profile

Advertisement - Login to hide

EGNS

Details ICAO EGNS (IOM)
Name Isle Of Man Ronaldsway
Region United Kingdom
Timezone Europe/Isle_of_Man (UTC+1.0)
Stats Elevation 52 ft / 16 m (AMSL)
Location 54.082833° -4.625475°
Runways 2
Magnetic Variation 2.417° W

METAR

EGNS 211850Z 35021KT 310V040 9999 FEW009 10/06 Q1018 NOSIG

Decode

TAF

Not found

Departure Runways

ID Width Length Bearing (true) Bearing (mag) Surface Threshold Offset Overrun Length
03 151 ft / 46 m 4,113 ft / 1,254 m 27.91° 30.33° Asphalt 492 ft / 150 m 0 ft / 0 m
08 151 ft / 46 m 6,016 ft / 1,834 m 77.93° 80.35° Asphalt 545 ft / 166 m 0 ft / 0 m
21 151 ft / 46 m 4,113 ft / 1,254 m 207.92° 210.34° Asphalt 0 ft / 0 m 0 ft / 0 m
26 151 ft / 46 m 6,016 ft / 1,834 m 257.95° 260.37° Asphalt 486 ft / 148 m 0 ft / 0 m

EIWF

Details ICAO EIWF (WAT)
Name Waterford
Region Ireland
Timezone Europe/Dublin (UTC+1.0)
Stats Elevation 119 ft / 36 m (AMSL)
Location 52.187182° -7.086909°
Runways 1
Magnetic Variation 3.053° W

METAR

EIWF 211900Z 36006KT 310V040 9999 SCT015 14/12 Q1019

Decode

TAF

Not found

Destination Runways

ID Width Length Bearing (true) Bearing (mag) Surface Threshold Offset Overrun Length
03 98 ft / 30 m 4,700 ft / 1,433 m 20.96° 24.01° Asphalt 295 ft / 90 m 0 ft / 0 m
21 98 ft / 30 m 4,700 ft / 1,433 m 200.96° 204.01° Asphalt 469 ft / 143 m 0 ft / 0 m

Approach Navaids

Runway Type Ident Frequency Range Bearing (true) Bearing (mag) Slope Elevation
21 Localiser IWD 110.90 MHz 18 nm / 33 km 201.10° 204.15° - 86 ft / 26 m (AMSL)
21 Glidescope IWD 110.90 MHz 10 nm / 19 km 200.96° 204.02° 3.20° 29 ft / 9 m (AMSL)
21 DME IWD 110.90 MHz 18 nm / 33 km - - - 29 ft / 9 m (AMSL)